createdAt,value
2022-09-03T00:02:08.438Z,91.64
2022-09-03T00:04:48.017Z,98.82
2022-09-03T00:07:21.254Z,100.00
2022-09-03T00:09:55.611Z,100.00
2022-09-03T00:12:27.389Z,96.33
2022-09-03T00:15:01.834Z,95.29
2022-09-03T00:17:33.454Z,96.21
2022-09-03T00:20:06.367Z,99.67
2022-09-03T00:22:39.269Z,100.00
2022-09-03T00:25:13.004Z,100.00
2022-09-03T00:27:42.787Z,100.00
2022-09-03T00:30:14.635Z,100.00
2022-09-03T00:32:47.847Z,100.00
2022-09-03T00:35:20.835Z,97.79
2022-09-03T00:37:49.964Z,98.39
2022-09-03T00:40:33.468Z,98.72
2022-09-03T00:43:11.029Z,100.00
2022-09-03T00:45:45.499Z,100.00
2022-09-03T00:48:28.364Z,100.00
2022-09-03T00:51:11.844Z,100.00
2022-09-03T00:53:51.351Z,100.00
2022-09-03T00:56:28.347Z,100.00
2022-09-03T00:59:09.325Z,100.00
2022-09-03T01:01:47.831Z,100.00
2022-09-03T01:04:29.192Z,100.00
2022-09-03T01:07:06.059Z,100.00
2022-09-03T01:09:48.981Z,100.00
2022-09-03T01:12:25.344Z,100.00
2022-09-03T01:15:05.269Z,100.00
2022-09-03T01:17:45.575Z,99.48
2022-09-03T01:20:24.090Z,100.00
2022-09-03T01:23:29.086Z,100.00
2022-09-03T01:26:12.116Z,100.00
2022-09-03T01:28:55.294Z,100.00
2022-09-03T01:31:36.139Z,100.00
2022-09-03T01:34:14.128Z,100.00
2022-09-03T01:36:50.745Z,100.00
2022-09-03T01:39:27.664Z,100.00
2022-09-03T01:42:20.965Z,100.00
2022-09-03T01:45:12.037Z,100.00
2022-09-03T01:47:51.860Z,100.00
2022-09-03T01:50:34.766Z,100.00
2022-09-03T01:53:11.727Z,100.00
2022-09-03T01:55:56.030Z,100.00
2022-09-03T01:58:31.354Z,100.00
2022-09-03T02:01:07.206Z,100.00
2022-09-03T02:03:40.788Z,100.00
2022-09-03T02:06:09.033Z,100.00
2022-09-03T02:08:36.521Z,100.00
2022-09-03T02:11:07.991Z,100.00
2022-09-03T02:13:39.651Z,100.00
2022-09-03T02:16:14.009Z,100.00
2022-09-03T02:18:46.885Z,100.00
2022-09-03T02:21:17.733Z,100.00
2022-09-03T02:23:45.309Z,100.00
2022-09-03T02:26:17.521Z,100.00
2022-09-03T02:28:45.579Z,100.00
2022-09-03T02:31:14.720Z,100.00
2022-09-03T02:33:45.018Z,100.00
2022-09-03T02:36:15.356Z,100.00
2022-09-03T02:38:44.311Z,100.00
2022-09-03T02:41:15.003Z,100.00
2022-09-03T02:43:47.167Z,100.00
2022-09-03T02:46:21.845Z,100.00
2022-09-03T02:48:49.553Z,100.00
2022-09-03T02:51:17.052Z,100.00
2022-09-03T02:53:45.015Z,100.00
2022-09-03T02:56:12.951Z,100.00
2022-09-03T02:58:40.893Z,100.00
2022-09-03T03:01:08.466Z,100.00
2022-09-03T03:03:37.325Z,100.00
2022-09-03T03:06:07.215Z,100.00
2022-09-03T03:08:35.167Z,100.00
2022-09-03T03:11:02.956Z,100.00
2022-09-03T03:13:31.886Z,100.00
2022-09-03T03:16:00.748Z,100.00
2022-09-03T03:18:28.929Z,100.00
2022-09-03T03:20:57.915Z,100.00
2022-09-03T03:23:25.416Z,100.00
2022-09-03T03:25:52.912Z,100.00
2022-09-03T03:28:20.601Z,100.00
2022-09-03T03:30:48.996Z,100.00
2022-09-03T03:33:16.626Z,100.00
2022-09-03T03:35:44.115Z,100.00
2022-09-03T03:38:13.112Z,100.00
2022-09-03T03:40:40.643Z,100.00
2022-09-03T03:43:08.181Z,100.00
2022-09-03T03:45:35.810Z,100.00
2022-09-03T03:48:03.587Z,100.00
2022-09-03T03:50:31.082Z,100.00
2022-09-03T03:53:00.829Z,100.00
2022-09-03T03:55:34.999Z,100.00
2022-09-03T03:58:02.901Z,100.00
2022-09-03T04:00:30.373Z,100.00
2022-09-03T04:02:57.997Z,100.00
2022-09-03T04:05:25.532Z,100.00
2022-09-03T04:07:54.378Z,100.00
2022-09-03T04:10:21.936Z,100.00
2022-09-03T04:12:50.736Z,100.00
2022-09-03T04:15:18.309Z,100.00
2022-09-03T04:17:45.815Z,100.00
2022-09-03T04:20:13.299Z,100.00
2022-09-03T04:22:40.786Z,100.00
2022-09-03T04:25:09.130Z,100.00
2022-09-03T04:27:36.617Z,100.00
2022-09-03T04:30:06.327Z,100.00
2022-09-03T04:32:52.489Z,100.00
2022-09-03T04:35:20.873Z,100.00
2022-09-03T04:37:48.430Z,100.00
2022-09-03T04:40:15.955Z,100.00
2022-09-03T04:42:43.486Z,100.00
2022-09-03T04:45:18.501Z,100.00
2022-09-03T04:47:47.383Z,100.00
2022-09-03T04:50:14.930Z,100.00
2022-09-03T04:52:42.408Z,100.00
2022-09-03T04:55:12.055Z,100.00
2022-09-03T04:57:39.538Z,100.00
2022-09-03T05:00:11.191Z,100.00
2022-09-03T05:02:40.114Z,96.27
2022-09-03T05:05:08.243Z,99.86
2022-09-03T05:07:38.670Z,99.33
2022-09-03T05:10:08.202Z,100.00
2022-09-03T05:12:36.537Z,100.00
2022-09-03T05:15:05.416Z,100.00
2022-09-03T05:17:37.217Z,100.00
2022-09-03T05:20:08.441Z,99.26
2022-09-03T05:22:36.064Z,93.37
2022-09-03T05:25:03.592Z,86.89
2022-09-03T05:27:32.164Z,81.64
2022-09-03T05:29:59.957Z,83.61
2022-09-03T05:32:28.669Z,82.06
2022-09-03T05:34:56.624Z,81.84
2022-09-03T05:37:25.908Z,76.94
2022-09-03T05:39:53.902Z,79.56
2022-09-03T05:42:21.936Z,81.62
2022-09-03T05:44:49.956Z,80.54
2022-09-03T05:47:17.503Z,77.02
2022-09-03T05:49:44.984Z,84.06
2022-09-03T05:52:12.481Z,92.98
2022-09-03T05:54:41.316Z,88.05
2022-09-03T05:57:08.828Z,81.97
2022-09-03T05:59:36.319Z,80.04
2022-09-03T06:02:03.979Z,75.33
2022-09-03T06:04:31.612Z,75.87
2022-09-03T06:07:00.846Z,74.55
2022-09-03T06:09:28.327Z,64.81
2022-09-03T06:11:57.496Z,56.00
2022-09-03T06:14:27.173Z,53.51
2022-09-03T06:16:55.764Z,52.30
2022-09-03T06:19:23.656Z,49.28
2022-09-03T06:21:51.213Z,51.41
2022-09-03T06:24:23.182Z,51.84
2022-09-03T06:26:54.090Z,49.35
2022-09-03T06:29:22.923Z,51.42
2022-09-03T06:31:50.798Z,59.49
2022-09-03T06:34:19.336Z,57.23
2022-09-03T06:36:46.894Z,51.92
2022-09-03T06:39:14.386Z,48.00
2022-09-03T06:41:41.884Z,46.31
2022-09-03T06:44:12.303Z,46.88
2022-09-03T06:46:43.185Z,42.87
2022-09-03T06:49:11.397Z,41.15
2022-09-03T06:51:39.601Z,42.34
2022-09-03T06:54:08.686Z,42.73
2022-09-03T06:56:40.542Z,42.17
2022-09-03T06:59:09.802Z,42.46
2022-09-03T07:01:40.778Z,42.48
2022-09-03T07:04:16.114Z,42.76
2022-09-03T07:06:44.199Z,38.47
2022-09-03T07:09:13.171Z,35.14
2022-09-03T07:11:46.953Z,34.37
2022-09-03T07:14:15.850Z,33.98
2022-09-03T07:16:43.785Z,36.12
2022-09-03T07:19:13.416Z,36.34
2022-09-03T07:21:48.180Z,33.59
2022-09-03T07:24:17.997Z,32.52
2022-09-03T07:26:46.529Z,33.34
2022-09-03T07:29:15.753Z,33.52
2022-09-03T07:31:44.355Z,31.16
2022-09-03T07:34:16.397Z,31.22
2022-09-03T07:36:47.001Z,30.20
2022-09-03T07:39:18.143Z,29.71
2022-09-03T07:41:46.661Z,28.73
2022-09-03T07:44:16.132Z,29.33
2022-09-03T07:46:46.041Z,29.60
2022-09-03T07:49:14.968Z,31.53
2022-09-03T07:51:42.557Z,32.53
2022-09-03T07:54:11.919Z,33.47
2022-09-03T07:56:40.666Z,35.40
2022-09-03T07:59:08.692Z,36.32
2022-09-03T08:01:41.230Z,36.91
2022-09-03T08:04:10.883Z,38.15
2022-09-03T08:06:40.325Z,39.16
2022-09-03T08:09:11.303Z,41.72
2022-09-03T08:11:40.663Z,43.00
2022-09-03T08:14:10.336Z,42.14
2022-09-03T08:16:39.847Z,41.18
2022-09-03T08:19:07.599Z,41.44
2022-09-03T08:21:35.727Z,39.81
2022-09-03T08:24:05.663Z,40.15
2022-09-03T08:26:35.541Z,41.59
2022-09-03T08:29:04.465Z,39.78
2022-09-03T08:31:33.649Z,40.40
2022-09-03T08:34:06.671Z,42.96
2022-09-03T08:36:39.030Z,44.41
2022-09-03T08:39:10.673Z,45.69
2022-09-03T08:42:02.831Z,45.90
2022-09-03T08:44:35.752Z,43.91
2022-09-03T08:47:10.219Z,41.43
2022-09-03T08:49:44.695Z,39.92
2022-09-03T08:52:26.111Z,38.73
2022-09-03T08:55:01.424Z,38.88
2022-09-03T08:57:33.321Z,39.11
2022-09-03T09:00:00.940Z,39.41
2022-09-03T09:02:42.689Z,40.08
2022-09-03T09:05:14.317Z,38.65
2022-09-03T09:07:47.740Z,38.37
2022-09-03T09:10:23.689Z,36.63
2022-09-03T09:13:06.073Z,37.30
2022-09-03T09:15:41.754Z,38.00
2022-09-03T09:18:19.915Z,36.88
2022-09-03T09:20:50.917Z,35.78
2022-09-03T09:23:25.920Z,36.80
2022-09-03T09:25:58.520Z,38.20
2022-09-03T09:28:30.961Z,38.39
2022-09-03T09:30:58.862Z,38.58
2022-09-03T09:33:26.457Z,39.17
2022-09-03T09:35:53.932Z,38.93
2022-09-03T09:38:29.920Z,39.98
2022-09-03T09:41:09.907Z,41.73
2022-09-03T09:43:37.872Z,42.44
2022-09-03T09:46:10.381Z,40.49
2022-09-03T09:48:46.350Z,42.08
2022-09-03T09:51:18.901Z,41.48
2022-09-03T09:53:46.425Z,40.06
2022-09-03T09:56:23.946Z,39.80
2022-09-03T09:58:52.641Z,37.09
2022-09-03T10:01:25.741Z,35.99
2022-09-03T10:03:55.780Z,36.48
2022-09-03T10:06:43.369Z,36.97
2022-09-03T10:09:13.511Z,37.49
2022-09-03T10:11:46.919Z,35.67
2022-09-03T10:14:26.138Z,37.46
2022-09-03T10:17:01.744Z,38.07
2022-09-03T10:19:37.596Z,38.23
2022-09-03T10:22:10.950Z,36.95
2022-09-03T10:24:52.115Z,34.86
2022-09-03T10:27:22.121Z,35.50
2022-09-03T10:29:50.179Z,35.76
2022-09-03T10:32:37.796Z,36.76
2022-09-03T10:35:20.388Z,39.45
2022-09-03T10:37:54.336Z,40.26
2022-09-03T10:40:31.668Z,39.94
2022-09-03T10:43:17.711Z,39.88
2022-09-03T10:45:54.629Z,39.74
2022-09-03T10:48:35.340Z,39.11
2022-09-03T10:51:06.599Z,37.45
2022-09-03T10:53:49.910Z,37.60
2022-09-03T10:56:22.479Z,37.57
2022-09-03T10:59:04.596Z,37.65
2022-09-03T11:01:40.300Z,37.24
2022-09-03T11:04:26.531Z,37.65
2022-09-03T11:06:58.904Z,39.57
2022-09-03T11:09:32.570Z,40.27
2022-09-03T11:12:05.317Z,39.57
2022-09-03T11:14:39.169Z,40.08
2022-09-03T11:17:11.608Z,39.95
2022-09-03T11:19:48.203Z,40.14
2022-09-03T11:22:20.977Z,41.99
2022-09-03T11:24:55.271Z,42.74
2022-09-03T11:27:32.490Z,41.47
2022-09-03T11:30:05.936Z,40.02
2022-09-03T11:32:46.656Z,39.89
2022-09-03T11:35:16.659Z,38.56
2022-09-03T11:37:55.000Z,37.86
2022-09-03T11:40:33.109Z,37.14
2022-09-03T11:43:08.701Z,36.77
2022-09-03T11:45:39.184Z,37.51
2022-09-03T11:48:33.087Z,39.37
2022-09-03T11:51:00.551Z,40.05
2022-09-03T11:53:35.494Z,39.52
2022-09-03T11:56:19.325Z,39.91
2022-09-03T11:58:48.404Z,38.83
2022-09-03T12:01:19.185Z,39.71
2022-09-03T12:03:50.239Z,40.45
2022-09-03T12:06:43.311Z,40.49
2022-09-03T12:09:38.446Z,41.03
2022-09-03T12:12:23.843Z,42.27
2022-09-03T12:15:00.000Z,44.25
2022-09-03T12:17:35.982Z,44.31
2022-09-03T12:20:04.357Z,43.79
2022-09-03T12:22:38.646Z,44.23
2022-09-03T12:25:12.144Z,43.86
2022-09-03T12:27:41.515Z,44.10
2022-09-03T12:30:18.081Z,44.74
2022-09-03T12:32:47.421Z,46.38
2022-09-03T12:38:08.410Z,47.09
2022-09-03T12:41:19.173Z,46.42
2022-09-03T12:43:49.792Z,48.20
2022-09-03T12:46:17.635Z,49.52
2022-09-03T12:51:52.435Z,47.93
2022-09-03T12:54:23.159Z,49.28
2022-09-03T12:56:57.403Z,48.29
2022-09-03T12:59:28.276Z,47.80
2022-09-03T13:01:59.390Z,46.81
2022-09-03T13:04:32.834Z,47.83
2022-09-03T13:07:04.603Z,49.22
2022-09-03T13:09:36.844Z,51.96
2022-09-03T13:12:05.802Z,50.81
2022-09-03T13:14:44.681Z,51.59
2022-09-03T13:17:38.261Z,54.70
2022-09-03T13:20:26.731Z,55.57
2022-09-03T13:23:11.183Z,55.40
2022-09-03T13:25:49.429Z,58.74
2022-09-03T13:28:28.678Z,63.56
2022-09-03T13:31:01.594Z,67.48
2022-09-03T13:33:38.933Z,74.52
2022-09-03T13:36:15.778Z,74.59
2022-09-03T13:38:50.635Z,77.28
2022-09-03T13:41:34.648Z,77.52
2022-09-03T13:44:09.846Z,79.08
2022-09-03T13:46:44.332Z,76.46
2022-09-03T13:49:40.511Z,72.73
2022-09-03T13:52:22.685Z,74.86
2022-09-03T13:54:55.681Z,74.83
2022-09-03T13:57:33.712Z,76.10
2022-09-03T14:00:07.769Z,75.89
2022-09-03T14:02:49.747Z,83.07
2022-09-03T14:05:32.247Z,80.30
2022-09-03T14:08:10.118Z,81.07
2022-09-03T14:10:59.175Z,77.80
2022-09-03T14:13:38.051Z,78.53
2022-09-03T14:16:09.574Z,78.29
2022-09-03T14:18:47.266Z,77.72
2022-09-03T14:21:19.583Z,76.48
2022-09-03T14:23:52.367Z,74.98
2022-09-03T14:26:38.690Z,75.61
2022-09-03T14:29:15.645Z,77.92
2022-09-03T14:31:58.930Z,78.22
2022-09-03T14:34:39.113Z,80.53
2022-09-03T14:37:16.139Z,77.89
2022-09-03T14:39:51.840Z,78.32
2022-09-03T14:42:37.787Z,78.97
2022-09-03T14:45:24.620Z,73.72
2022-09-03T14:48:09.687Z,86.54
2022-09-03T14:51:06.247Z,79.99
2022-09-03T14:53:58.377Z,77.36
2022-09-03T14:56:41.822Z,76.98
2022-09-03T14:59:43.635Z,79.33
2022-09-03T15:02:31.011Z,80.18
2022-09-03T15:05:12.245Z,77.16
2022-09-03T15:07:47.731Z,75.23
2022-09-03T15:10:22.867Z,77.32
2022-09-03T15:12:54.261Z,77.15
2022-09-03T15:15:26.343Z,76.02
2022-09-03T15:18:10.861Z,75.65
2022-09-03T15:20:50.656Z,72.63
2022-09-03T15:23:47.100Z,72.12
2022-09-03T15:26:41.551Z,71.61
2022-09-03T15:29:30.124Z,70.90
2022-09-03T15:32:07.894Z,70.37
2022-09-03T15:34:51.711Z,69.93
2022-09-03T15:37:24.672Z,68.75
2022-09-03T15:40:02.483Z,70.27
2022-09-03T15:42:31.313Z,65.46
2022-09-03T15:45:07.398Z,63.76
2022-09-03T15:47:51.567Z,64.53
2022-09-03T15:50:30.527Z,64.44
2022-09-03T15:53:04.862Z,65.90
2022-09-03T15:55:37.018Z,68.41
2022-09-03T15:58:14.328Z,67.77
2022-09-03T16:01:00.122Z,67.95
2022-09-03T16:03:46.720Z,65.85
2022-09-03T16:06:26.140Z,67.35
2022-09-03T16:08:58.475Z,66.82
2022-09-03T16:11:37.094Z,67.74
2022-09-03T16:14:12.171Z,71.00
2022-09-03T16:16:54.993Z,74.85
2022-09-03T16:19:28.011Z,76.41
2022-09-03T16:22:00.801Z,76.23
2022-09-03T16:24:38.453Z,75.49
2022-09-03T16:27:12.179Z,76.33
2022-09-03T16:29:40.511Z,74.72
2022-09-03T16:32:27.027Z,74.82
2022-09-03T16:35:05.208Z,73.87
2022-09-03T16:37:39.400Z,72.93
2022-09-03T16:40:17.228Z,72.22
2022-09-03T16:42:51.715Z,73.64
2022-09-03T16:45:30.810Z,71.42
2022-09-03T16:48:17.354Z,71.42
2022-09-03T16:51:04.360Z,72.06
2022-09-03T16:53:50.465Z,72.19
2022-09-03T16:56:36.548Z,69.96
2022-09-03T16:59:17.849Z,68.89
2022-09-03T17:02:01.876Z,69.30
2022-09-03T17:04:54.700Z,69.67
2022-09-03T17:07:37.605Z,69.37
2022-09-03T17:10:14.535Z,69.12
2022-09-03T17:12:50.812Z,69.40
2022-09-03T17:15:31.420Z,72.01
2022-09-03T17:18:17.467Z,75.51
2022-09-03T17:21:01.823Z,80.76
2022-09-03T17:23:49.820Z,87.89
2022-09-03T17:26:29.240Z,97.88
2022-09-03T17:29:12.829Z,99.83
2022-09-03T17:31:51.383Z,100.00
2022-09-03T17:34:39.883Z,100.00
2022-09-03T17:37:23.123Z,100.00
2022-09-03T17:40:08.911Z,100.00
2022-09-03T17:42:49.840Z,100.00
2022-09-03T17:45:28.165Z,100.00
2022-09-03T17:48:14.850Z,100.00
2022-09-03T17:50:51.151Z,100.00
2022-09-03T17:53:26.046Z,100.00
2022-09-03T17:55:58.679Z,100.00
2022-09-03T17:58:32.619Z,100.00
2022-09-03T18:01:07.895Z,100.00
2022-09-03T18:03:44.966Z,100.00
2022-09-03T18:06:24.001Z,100.00
2022-09-03T18:08:58.684Z,100.00
2022-09-03T18:11:34.062Z,100.00
2022-09-03T18:14:11.185Z,100.00
2022-09-03T18:16:43.352Z,100.00
2022-09-03T18:19:19.419Z,100.00
2022-09-03T18:22:07.802Z,100.00
2022-09-03T18:25:01.967Z,100.00
2022-09-03T18:27:52.497Z,100.00
2022-09-03T18:30:37.854Z,100.00
2022-09-03T18:33:23.451Z,100.00
2022-09-03T18:36:08.208Z,100.00
2022-09-03T18:38:55.075Z,100.00
2022-09-03T18:42:03.443Z,100.00
2022-09-03T18:45:20.241Z,100.00
2022-09-03T18:48:20.766Z,100.00
2022-09-03T18:51:15.529Z,100.00
2022-09-03T18:54:08.874Z,100.00
2022-09-03T18:57:01.483Z,100.00
2022-09-03T19:00:19.115Z,100.00
2022-09-03T19:03:15.648Z,100.00
2022-09-03T19:06:14.265Z,100.00
2022-09-03T19:09:07.284Z,100.00
2022-09-03T19:12:00.068Z,100.00
2022-09-03T19:14:53.375Z,100.00
2022-09-03T19:17:48.765Z,100.00
2022-09-03T19:20:43.685Z,100.00
2022-09-03T19:23:28.863Z,100.00
2022-09-03T19:26:19.542Z,100.00
2022-09-03T19:29:10.671Z,100.00
2022-09-03T19:32:03.551Z,100.00
2022-09-03T19:35:10.631Z,100.00
2022-09-03T19:38:00.071Z,100.00
2022-09-03T19:40:59.539Z,100.00
2022-09-03T19:43:55.004Z,100.00
2022-09-03T19:46:52.755Z,100.00
2022-09-03T19:49:48.760Z,100.00
2022-09-03T19:52:43.179Z,100.00
2022-09-03T19:55:31.549Z,100.00
2022-09-03T19:58:41.493Z,100.00
2022-09-03T20:01:24.585Z,100.00
2022-09-03T20:04:11.285Z,100.00
2022-09-03T20:06:57.584Z,100.00
2022-09-03T20:09:48.438Z,100.00
2022-09-03T20:12:21.020Z,100.00
2022-09-03T20:14:48.646Z,100.00
2022-09-03T20:17:27.968Z,100.00
2022-09-03T20:20:16.621Z,100.00
2022-09-03T20:22:51.852Z,100.00
2022-09-03T20:25:36.111Z,100.00
2022-09-03T20:28:15.578Z,100.00
2022-09-03T20:30:48.866Z,100.00
2022-09-03T20:33:32.083Z,100.00
2022-09-03T20:36:14.893Z,100.00
2022-09-03T20:39:11.022Z,100.00
2022-09-03T20:41:50.143Z,100.00
2022-09-03T20:44:33.197Z,100.00
2022-09-03T20:47:16.013Z,100.00
2022-09-03T20:49:53.981Z,100.00
2022-09-03T20:52:34.234Z,100.00
2022-09-03T20:55:08.846Z,100.00
2022-09-03T20:57:45.669Z,100.00
2022-09-03T21:00:15.722Z,100.00
2022-09-03T21:03:03.623Z,100.00
2022-09-03T21:05:35.583Z,100.00
2022-09-03T21:08:13.195Z,100.00
2022-09-03T21:10:49.011Z,100.00
2022-09-03T21:13:32.685Z,100.00
2022-09-03T21:16:25.287Z,100.00
2022-09-03T21:19:00.472Z,100.00
2022-09-03T21:21:40.328Z,100.00
2022-09-03T21:24:15.547Z,100.00
2022-09-03T21:26:50.456Z,100.00
2022-09-03T21:29:24.205Z,100.00
2022-09-03T21:31:57.392Z,100.00
2022-09-03T21:34:30.835Z,100.00
2022-09-03T21:37:00.756Z,100.00
2022-09-03T21:39:33.386Z,100.00
2022-09-03T21:42:06.445Z,100.00
2022-09-03T21:44:51.775Z,100.00
2022-09-03T21:47:21.231Z,100.00
2022-09-03T21:50:03.588Z,100.00
2022-09-03T21:52:40.580Z,100.00
2022-09-03T21:55:32.173Z,100.00
2022-09-03T21:58:11.243Z,100.00
2022-09-03T22:00:39.306Z,100.00
2022-09-03T22:03:09.628Z,100.00
2022-09-03T22:05:49.660Z,100.00
2022-09-03T22:08:25.226Z,100.00
2022-09-03T22:11:01.533Z,100.00
2022-09-03T22:13:32.529Z,100.00
2022-09-03T22:16:13.641Z,100.00
2022-09-03T22:18:41.347Z,100.00
2022-09-03T22:21:19.714Z,100.00
2022-09-03T22:24:07.206Z,100.00
2022-09-03T22:26:45.547Z,100.00
2022-09-03T22:29:20.344Z,100.00
2022-09-03T22:31:58.350Z,100.00
2022-09-03T22:34:46.889Z,100.00
2022-09-03T22:37:25.143Z,100.00
2022-09-03T22:40:03.910Z,100.00
2022-09-03T22:42:47.676Z,100.00
2022-09-03T22:45:40.543Z,100.00
2022-09-03T22:48:22.852Z,100.00
2022-09-03T22:50:57.530Z,100.00
2022-09-03T22:53:42.663Z,100.00
2022-09-03T22:56:12.697Z,100.00
2022-09-03T22:58:47.516Z,100.00
2022-09-03T23:01:19.102Z,100.00
2022-09-03T23:03:54.402Z,100.00
2022-09-03T23:06:26.949Z,100.00
2022-09-03T23:09:01.292Z,100.00
2022-09-03T23:11:34.579Z,100.00
2022-09-03T23:14:06.222Z,100.00
2022-09-03T23:16:39.392Z,100.00
2022-09-03T23:21:57.728Z,100.00
2022-09-03T23:24:29.721Z,100.00
2022-09-03T23:27:01.238Z,100.00
2022-09-03T23:29:36.577Z,100.00
2022-09-03T23:32:05.209Z,100.00
2022-09-03T23:34:33.372Z,100.00
2022-09-03T23:37:35.320Z,100.00
2022-09-03T23:40:21.025Z,100.00
2022-09-03T23:43:05.507Z,100.00
2022-09-03T23:45:44.116Z,100.00
2022-09-03T23:48:23.798Z,100.00
2022-09-03T23:51:03.877Z,100.00
2022-09-03T23:53:47.312Z,100.00
2022-09-03T23:56:35.760Z,100.00
2022-09-03T23:59:13.420Z,100.00
